sensor_id;sensor_type;location;lat;lon;timestamp;P1;durP1;ratioP1;P2;durP2;ratioP2
16579;SDS011;8402;51.466;6.806;2023-02-18T00:01:07;16.27;;;10.23;;
16579;SDS011;8402;51.466;6.806;2023-02-18T00:03:38;17.70;;;10.87;;
16579;SDS011;8402;51.466;6.806;2023-02-18T00:06:10;15.43;;;8.27;;
16579;SDS011;8402;51.466;6.806;2023-02-18T00:08:41;18.23;;;10.37;;
16579;SDS011;8402;51.466;6.806;2023-02-18T00:11:12;19.53;;;10.80;;
16579;SDS011;8402;51.466;6.806;2023-02-18T00:13:47;20.20;;;10.63;;
16579;SDS011;8402;51.466;6.806;2023-02-18T00:16:18;19.63;;;10.77;;
16579;SDS011;8402;51.466;6.806;2023-02-18T00:18:48;17.00;;;9.93;;
16579;SDS011;8402;51.466;6.806;2023-02-18T00:21:18;19.07;;;10.67;;
16579;SDS011;8402;51.466;6.806;2023-02-18T00:23:48;20.70;;;11.70;;
16579;SDS011;8402;51.466;6.806;2023-02-18T00:26:18;19.90;;;10.13;;
16579;SDS011;8402;51.466;6.806;2023-02-18T00:28:51;22.30;;;11.47;;
16579;SDS011;8402;51.466;6.806;2023-02-18T00:31:22;18.60;;;10.17;;
16579;SDS011;8402;51.466;6.806;2023-02-18T00:33:53;18.47;;;10.33;;
16579;SDS011;8402;51.466;6.806;2023-02-18T00:36:23;20.57;;;11.30;;
16579;SDS011;8402;51.466;6.806;2023-02-18T00:38:55;21.80;;;11.53;;
16579;SDS011;8402;51.466;6.806;2023-02-18T00:41:26;17.20;;;10.57;;
16579;SDS011;8402;51.466;6.806;2023-02-18T00:44:00;20.17;;;11.17;;
16579;SDS011;8402;51.466;6.806;2023-02-18T00:46:30;17.83;;;10.57;;
16579;SDS011;8402;51.466;6.806;2023-02-18T00:49:00;18.50;;;10.33;;
16579;SDS011;8402;51.466;6.806;2023-02-18T00:51:30;20.67;;;11.57;;
16579;SDS011;8402;51.466;6.806;2023-02-18T00:54:00;23.50;;;11.47;;
16579;SDS011;8402;51.466;6.806;2023-02-18T00:56:30;22.80;;;10.43;;
16579;SDS011;8402;51.466;6.806;2023-02-18T00:59:03;18.57;;;11.20;;
16579;SDS011;8402;51.466;6.806;2023-02-18T01:01:33;18.57;;;10.43;;
16579;SDS011;8402;51.466;6.806;2023-02-18T01:04:03;21.30;;;11.07;;
16579;SDS011;8402;51.466;6.806;2023-02-18T01:06:33;20.27;;;11.50;;
16579;SDS011;8402;51.466;6.806;2023-02-18T01:09:03;23.83;;;12.80;;
16579;SDS011;8402;51.466;6.806;2023-02-18T01:11:34;25.20;;;11.87;;
16579;SDS011;8402;51.466;6.806;2023-02-18T01:14:06;19.80;;;10.80;;
16579;SDS011;8402;51.466;6.806;2023-02-18T01:16:36;20.97;;;11.60;;
16579;SDS011;8402;51.466;6.806;2023-02-18T01:19:06;20.97;;;10.63;;
16579;SDS011;8402;51.466;6.806;2023-02-18T01:21:36;22.17;;;10.70;;
16579;SDS011;8402;51.466;6.806;2023-02-18T01:24:06;22.93;;;11.37;;
16579;SDS011;8402;51.466;6.806;2023-02-18T01:26:36;21.30;;;11.60;;
16579;SDS011;8402;51.466;6.806;2023-02-18T01:29:08;21.00;;;10.43;;
16579;SDS011;8402;51.466;6.806;2023-02-18T01:31:38;20.30;;;11.00;;
16579;SDS011;8402;51.466;6.806;2023-02-18T01:34:08;22.67;;;10.67;;
16579;SDS011;8402;51.466;6.806;2023-02-18T01:36:38;21.83;;;10.50;;
16579;SDS011;8402;51.466;6.806;2023-02-18T01:39:07;18.77;;;10.13;;
16579;SDS011;8402;51.466;6.806;2023-02-18T01:41:37;18.80;;;9.93;;
16579;SDS011;8402;51.466;6.806;2023-02-18T01:44:19;17.93;;;9.47;;
16579;SDS011;8402;51.466;6.806;2023-02-18T01:46:51;18.80;;;10.43;;
16579;SDS011;8402;51.466;6.806;2023-02-18T01:49:22;19.83;;;10.57;;
16579;SDS011;8402;51.466;6.806;2023-02-18T01:51:55;16.93;;;9.80;;
16579;SDS011;8402;51.466;6.806;2023-02-18T01:54:30;21.77;;;10.67;;
16579;SDS011;8402;51.466;6.806;2023-02-18T01:57:03;11.87;;;6.33;;
16579;SDS011;8402;51.466;6.806;2023-02-18T01:59:39;18.67;;;9.60;;
16579;SDS011;8402;51.466;6.806;2023-02-18T02:02:11;14.73;;;9.10;;
16579;SDS011;8402;51.466;6.806;2023-02-18T02:04:44;19.97;;;9.10;;
16579;SDS011;8402;51.466;6.806;2023-02-18T02:07:15;15.03;;;8.00;;
16579;SDS011;8402;51.466;6.806;2023-02-18T02:09:48;12.83;;;7.70;;
16579;SDS011;8402;51.466;6.806;2023-02-18T02:12:23;16.57;;;8.37;;
16579;SDS011;8402;51.466;6.806;2023-02-18T02:15:15;15.53;;;8.53;;
16579;SDS011;8402;51.466;6.806;2023-02-18T02:18:00;15.87;;;7.47;;
16579;SDS011;8402;51.466;6.806;2023-02-18T02:27:06;12.70;;;6.77;;
16579;SDS011;8402;51.466;6.806;2023-02-18T02:29:47;13.47;;;6.90;;
16579;SDS011;8402;51.466;6.806;2023-02-18T02:32:44;13.70;;;7.10;;
16579;SDS011;8402;51.466;6.806;2023-02-18T02:35:32;12.30;;;7.33;;
16579;SDS011;8402;51.466;6.806;2023-02-18T02:38:06;14.57;;;7.60;;
16579;SDS011;8402;51.466;6.806;2023-02-18T02:40:42;12.37;;;7.30;;
16579;SDS011;8402;51.466;6.806;2023-02-18T02:43:20;11.13;;;6.80;;
16579;SDS011;8402;51.466;6.806;2023-02-18T02:46:01;12.10;;;6.53;;
16579;SDS011;8402;51.466;6.806;2023-02-18T02:48:36;12.77;;;7.13;;
16579;SDS011;8402;51.466;6.806;2023-02-18T02:51:14;10.80;;;6.60;;
16579;SDS011;8402;51.466;6.806;2023-02-18T02:53:47;12.10;;;7.10;;
16579;SDS011;8402;51.466;6.806;2023-02-18T02:56:18;10.30;;;6.53;;
16579;SDS011;8402;51.466;6.806;2023-02-18T02:58:52;12.83;;;6.70;;
16579;SDS011;8402;51.466;6.806;2023-02-18T03:01:29;11.10;;;5.80;;
16579;SDS011;8402;51.466;6.806;2023-02-18T03:04:15;11.47;;;6.63;;
16579;SDS011;8402;51.466;6.806;2023-02-18T03:07:12;11.77;;;6.87;;
16579;SDS011;8402;51.466;6.806;2023-02-18T03:09:50;12.40;;;6.73;;
16579;SDS011;8402;51.466;6.806;2023-02-18T03:12:33;11.50;;;6.47;;
16579;SDS011;8402;51.466;6.806;2023-02-18T03:15:09;14.97;;;6.67;;
16579;SDS011;8402;51.466;6.806;2023-02-18T03:17:47;12.17;;;6.90;;
16579;SDS011;8402;51.466;6.806;2023-02-18T03:20:30;11.53;;;6.17;;
16579;SDS011;8402;51.466;6.806;2023-02-18T03:23:06;11.53;;;6.43;;
16579;SDS011;8402;51.466;6.806;2023-02-18T03:25:40;14.70;;;7.97;;
16579;SDS011;8402;51.466;6.806;2023-02-18T03:28:12;15.67;;;7.87;;
16579;SDS011;8402;51.466;6.806;2023-02-18T03:30:47;16.83;;;7.67;;
16579;SDS011;8402;51.466;6.806;2023-02-18T03:33:19;13.33;;;6.83;;
16579;SDS011;8402;51.466;6.806;2023-02-18T03:35:54;14.10;;;7.20;;
16579;SDS011;8402;51.466;6.806;2023-02-18T03:38:28;13.73;;;7.40;;
16579;SDS011;8402;51.466;6.806;2023-02-18T03:41:04;13.87;;;7.53;;
16579;SDS011;8402;51.466;6.806;2023-02-18T03:43:34;14.90;;;7.63;;
16579;SDS011;8402;51.466;6.806;2023-02-18T03:46:04;16.03;;;7.40;;
16579;SDS011;8402;51.466;6.806;2023-02-18T03:48:35;13.00;;;7.27;;
16579;SDS011;8402;51.466;6.806;2023-02-18T03:51:04;13.90;;;7.53;;
16579;SDS011;8402;51.466;6.806;2023-02-18T03:53:37;14.40;;;8.40;;
16579;SDS011;8402;51.466;6.806;2023-02-18T03:56:07;12.77;;;7.47;;
16579;SDS011;8402;51.466;6.806;2023-02-18T03:58:36;14.50;;;7.53;;
16579;SDS011;8402;51.466;6.806;2023-02-18T04:01:06;15.00;;;8.00;;
16579;SDS011;8402;51.466;6.806;2023-02-18T04:03:36;13.80;;;6.47;;
16579;SDS011;8402;51.466;6.806;2023-02-18T04:06:06;13.80;;;7.27;;
16579;SDS011;8402;51.466;6.806;2023-02-18T04:08:39;13.67;;;6.97;;
16579;SDS011;8402;51.466;6.806;2023-02-18T04:11:09;14.57;;;6.87;;
16579;SDS011;8402;51.466;6.806;2023-02-18T04:13:39;14.23;;;6.40;;
16579;SDS011;8402;51.466;6.806;2023-02-18T04:16:08;15.33;;;6.03;;
16579;SDS011;8402;51.466;6.806;2023-02-18T04:18:38;12.43;;;7.47;;
16579;SDS011;8402;51.466;6.806;2023-02-18T04:21:11;16.07;;;8.00;;
16579;SDS011;8402;51.466;6.806;2023-02-18T04:23:43;15.83;;;7.43;;
16579;SDS011;8402;51.466;6.806;2023-02-18T04:26:13;13.17;;;6.33;;
16579;SDS011;8402;51.466;6.806;2023-02-18T04:28:43;12.97;;;5.90;;
16579;SDS011;8402;51.466;6.806;2023-02-18T04:31:13;12.00;;;6.17;;
16579;SDS011;8402;51.466;6.806;2023-02-18T04:33:45;10.97;;;5.80;;
16579;SDS011;8402;51.466;6.806;2023-02-18T04:36:14;11.57;;;5.93;;
16579;SDS011;8402;51.466;6.806;2023-02-18T04:38:47;10.97;;;5.30;;
16579;SDS011;8402;51.466;6.806;2023-02-18T04:41:17;7.07;;;3.67;;
16579;SDS011;8402;51.466;6.806;2023-02-18T04:43:47;8.87;;;4.27;;
16579;SDS011;8402;51.466;6.806;2023-02-18T04:46:20;7.27;;;3.87;;
16579;SDS011;8402;51.466;6.806;2023-02-18T04:48:50;8.97;;;3.90;;
16579;SDS011;8402;51.466;6.806;2023-02-18T04:51:19;6.37;;;3.13;;
16579;SDS011;8402;51.466;6.806;2023-02-18T04:53:52;7.43;;;3.90;;
16579;SDS011;8402;51.466;6.806;2023-02-18T04:56:22;5.93;;;3.17;;
16579;SDS011;8402;51.466;6.806;2023-02-18T04:58:51;7.13;;;3.67;;
16579;SDS011;8402;51.466;6.806;2023-02-18T05:01:21;7.00;;;3.80;;
16579;SDS011;8402;51.466;6.806;2023-02-18T05:03:51;6.63;;;3.33;;
16579;SDS011;8402;51.466;6.806;2023-02-18T05:06:21;6.17;;;3.10;;
16579;SDS011;8402;51.466;6.806;2023-02-18T05:08:54;6.00;;;2.77;;
16579;SDS011;8402;51.466;6.806;2023-02-18T05:11:23;5.23;;;2.70;;
16579;SDS011;8402;51.466;6.806;2023-02-18T05:13:53;4.33;;;2.37;;
16579;SDS011;8402;51.466;6.806;2023-02-18T05:16:23;5.20;;;2.30;;
16579;SDS011;8402;51.466;6.806;2023-02-18T05:18:53;4.23;;;2.20;;
16579;SDS011;8402;51.466;6.806;2023-02-18T05:21:23;3.77;;;1.87;;
16579;SDS011;8402;51.466;6.806;2023-02-18T05:23:55;2.63;;;1.60;;
16579;SDS011;8402;51.466;6.806;2023-02-18T05:26:25;3.70;;;1.93;;
16579;SDS011;8402;51.466;6.806;2023-02-18T05:28:55;4.47;;;1.50;;
16579;SDS011;8402;51.466;6.806;2023-02-18T05:31:25;4.40;;;1.47;;
16579;SDS011;8402;51.466;6.806;2023-02-18T05:33:55;4.07;;;2.00;;
16579;SDS011;8402;51.466;6.806;2023-02-18T05:36:25;3.47;;;1.60;;
16579;SDS011;8402;51.466;6.806;2023-02-18T05:38:58;2.00;;;1.20;;
16579;SDS011;8402;51.466;6.806;2023-02-18T05:41:28;3.83;;;1.63;;
16579;SDS011;8402;51.466;6.806;2023-02-18T05:43:57;2.33;;;1.30;;
16579;SDS011;8402;51.466;6.806;2023-02-18T05:46:40;1.63;;;1.07;;
16579;SDS011;8402;51.466;6.806;2023-02-18T05:49:10;3.27;;;1.60;;
16579;SDS011;8402;51.466;6.806;2023-02-18T05:51:40;5.00;;;1.37;;
16579;SDS011;8402;51.466;6.806;2023-02-18T05:54:12;2.63;;;1.53;;
16579;SDS011;8402;51.466;6.806;2023-02-18T05:56:42;2.50;;;1.33;;
16579;SDS011;8402;51.466;6.806;2023-02-18T05:59:12;2.70;;;1.50;;
16579;SDS011;8402;51.466;6.806;2023-02-18T06:01:42;4.23;;;1.90;;
16579;SDS011;8402;51.466;6.806;2023-02-18T06:04:13;1.87;;;1.10;;
16579;SDS011;8402;51.466;6.806;2023-02-18T06:06:44;2.43;;;1.40;;
16579;SDS011;8402;51.466;6.806;2023-02-18T06:09:17;2.13;;;1.33;;
16579;SDS011;8402;51.466;6.806;2023-02-18T06:11:46;3.63;;;1.43;;
16579;SDS011;8402;51.466;6.806;2023-02-18T06:14:16;4.30;;;1.70;;
16579;SDS011;8402;51.466;6.806;2023-02-18T06:16:47;2.20;;;1.50;;
16579;SDS011;8402;51.466;6.806;2023-02-18T06:19:17;1.83;;;1.40;;
16579;SDS011;8402;51.466;6.806;2023-02-18T06:21:47;1.60;;;1.20;;
16579;SDS011;8402;51.466;6.806;2023-02-18T06:24:24;2.83;;;1.50;;
16579;SDS011;8402;51.466;6.806;2023-02-18T06:26:53;3.43;;;1.60;;
16579;SDS011;8402;51.466;6.806;2023-02-18T06:29:23;3.63;;;1.77;;
16579;SDS011;8402;51.466;6.806;2023-02-18T06:31:55;2.90;;;1.50;;
16579;SDS011;8402;51.466;6.806;2023-02-18T06:34:25;1.90;;;1.30;;
16579;SDS011;8402;51.466;6.806;2023-02-18T06:36:55;2.87;;;1.10;;
16579;SDS011;8402;51.466;6.806;2023-02-18T06:39:29;2.73;;;1.63;;
16579;SDS011;8402;51.466;6.806;2023-02-18T06:41:59;3.33;;;1.63;;
16579;SDS011;8402;51.466;6.806;2023-02-18T06:44:29;2.10;;;1.20;;
16579;SDS011;8402;51.466;6.806;2023-02-18T06:46:59;3.33;;;1.63;;
16579;SDS011;8402;51.466;6.806;2023-02-18T06:49:29;2.70;;;1.63;;
16579;SDS011;8402;51.466;6.806;2023-02-18T06:51:59;5.60;;;1.77;;
16579;SDS011;8402;51.466;6.806;2023-02-18T06:54:32;4.03;;;2.10;;
16579;SDS011;8402;51.466;6.806;2023-02-18T06:57:02;3.30;;;1.70;;
16579;SDS011;8402;51.466;6.806;2023-02-18T06:59:32;2.57;;;1.57;;
16579;SDS011;8402;51.466;6.806;2023-02-18T07:02:02;4.20;;;1.93;;
16579;SDS011;8402;51.466;6.806;2023-02-18T07:04:31;3.77;;;1.80;;
16579;SDS011;8402;51.466;6.806;2023-02-18T07:07:01;3.67;;;1.73;;
16579;SDS011;8402;51.466;6.806;2023-02-18T07:09:34;2.80;;;1.50;;
16579;SDS011;8402;51.466;6.806;2023-02-18T07:12:04;3.93;;;1.97;;
16579;SDS011;8402;51.466;6.806;2023-02-18T07:14:34;4.13;;;1.53;;
16579;SDS011;8402;51.466;6.806;2023-02-18T07:17:03;4.77;;;1.80;;
16579;SDS011;8402;51.466;6.806;2023-02-18T07:19:33;3.83;;;1.70;;
16579;SDS011;8402;51.466;6.806;2023-02-18T07:22:03;3.93;;;1.37;;
16579;SDS011;8402;51.466;6.806;2023-02-18T07:24:38;2.67;;;1.40;;
16579;SDS011;8402;51.466;6.806;2023-02-18T07:27:08;2.07;;;1.10;;
16579;SDS011;8402;51.466;6.806;2023-02-18T07:29:40;2.87;;;1.60;;
16579;SDS011;8402;51.466;6.806;2023-02-18T07:32:10;2.70;;;1.50;;
16579;SDS011;8402;51.466;6.806;2023-02-18T07:34:40;4.63;;;1.57;;
16579;SDS011;8402;51.466;6.806;2023-02-18T07:37:10;2.83;;;1.10;;
16579;SDS011;8402;51.466;6.806;2023-02-18T07:39:43;3.00;;;1.67;;
16579;SDS011;8402;51.466;6.806;2023-02-18T07:42:13;2.80;;;1.50;;
16579;SDS011;8402;51.466;6.806;2023-02-18T07:44:43;3.43;;;1.67;;
16579;SDS011;8402;51.466;6.806;2023-02-18T07:47:14;2.90;;;1.60;;
16579;SDS011;8402;51.466;6.806;2023-02-18T07:49:45;2.20;;;1.20;;
16579;SDS011;8402;51.466;6.806;2023-02-18T07:52:15;4.33;;;1.67;;
16579;SDS011;8402;51.466;6.806;2023-02-18T07:54:47;1.80;;;0.90;;
16579;SDS011;8402;51.466;6.806;2023-02-18T07:57:17;3.53;;;1.30;;
16579;SDS011;8402;51.466;6.806;2023-02-18T07:59:47;3.30;;;0.90;;
16579;SDS011;8402;51.466;6.806;2023-02-18T08:02:17;2.30;;;1.03;;
16579;SDS011;8402;51.466;6.806;2023-02-18T08:04:48;1.97;;;1.10;;
16579;SDS011;8402;51.466;6.806;2023-02-18T08:07:19;3.17;;;0.70;;
16579;SDS011;8402;51.466;6.806;2023-02-18T08:09:54;1.20;;;0.70;;
16579;SDS011;8402;51.466;6.806;2023-02-18T08:12:25;1.70;;;0.80;;
16579;SDS011;8402;51.466;6.806;2023-02-18T08:14:55;2.27;;;1.00;;
16579;SDS011;8402;51.466;6.806;2023-02-18T08:17:25;3.47;;;0.93;;
16579;SDS011;8402;51.466;6.806;2023-02-18T08:19:54;4.00;;;0.97;;
16579;SDS011;8402;51.466;6.806;2023-02-18T08:22:24;21.10;;;8.83;;
16579;SDS011;8402;51.466;6.806;2023-02-18T08:24:57;2.70;;;1.10;;
16579;SDS011;8402;51.466;6.806;2023-02-18T08:27:27;2.23;;;1.40;;
16579;SDS011;8402;51.466;6.806;2023-02-18T08:29:57;2.53;;;1.43;;
16579;SDS011;8402;51.466;6.806;2023-02-18T08:32:26;2.97;;;1.20;;
16579;SDS011;8402;51.466;6.806;2023-02-18T08:34:57;3.70;;;1.43;;
16579;SDS011;8402;51.466;6.806;2023-02-18T08:37:27;1.87;;;1.27;;
16579;SDS011;8402;51.466;6.806;2023-02-18T08:40:19;3.50;;;1.30;;
16579;SDS011;8402;51.466;6.806;2023-02-18T08:42:49;1.70;;;1.23;;
16579;SDS011;8402;51.466;6.806;2023-02-18T08:45:19;4.70;;;1.60;;
16579;SDS011;8402;51.466;6.806;2023-02-18T08:47:49;4.97;;;1.60;;
16579;SDS011;8402;51.466;6.806;2023-02-18T08:50:39;4.43;;;2.07;;
16579;SDS011;8402;51.466;6.806;2023-02-18T08:53:09;5.83;;;2.00;;
16579;SDS011;8402;51.466;6.806;2023-02-18T08:55:44;6.57;;;1.97;;
16579;SDS011;8402;51.466;6.806;2023-02-18T08:58:14;5.37;;;2.23;;
16579;SDS011;8402;51.466;6.806;2023-02-18T09:00:45;4.73;;;1.77;;
16579;SDS011;8402;51.466;6.806;2023-02-18T09:03:15;5.53;;;2.00;;
16579;SDS011;8402;51.466;6.806;2023-02-18T09:05:44;6.50;;;1.60;;
16579;SDS011;8402;51.466;6.806;2023-02-18T09:08:14;6.53;;;1.97;;
16579;SDS011;8402;51.466;6.806;2023-02-18T09:10:47;4.33;;;2.00;;
16579;SDS011;8402;51.466;6.806;2023-02-18T09:13:17;11.40;;;2.00;;
16579;SDS011;8402;51.466;6.806;2023-02-18T09:15:54;7.70;;;2.10;;
16579;SDS011;8402;51.466;6.806;2023-02-18T09:18:25;8.40;;;2.30;;
16579;SDS011;8402;51.466;6.806;2023-02-18T09:20:56;6.63;;;2.17;;
16579;SDS011;8402;51.466;6.806;2023-02-18T09:23:28;6.07;;;1.90;;
16579;SDS011;8402;51.466;6.806;2023-02-18T09:26:02;9.33;;;2.13;;
16579;SDS011;8402;51.466;6.806;2023-02-18T09:28:33;8.10;;;2.20;;
16579;SDS011;8402;51.466;6.806;2023-02-18T09:31:04;13.07;;;2.80;;
16579;SDS011;8402;51.466;6.806;2023-02-18T09:33:36;12.80;;;3.27;;
16579;SDS011;8402;51.466;6.806;2023-02-18T09:36:08;10.23;;;2.33;;
16579;SDS011;8402;51.466;6.806;2023-02-18T09:38:38;7.80;;;2.33;;
16579;SDS011;8402;51.466;6.806;2023-02-18T09:41:13;12.23;;;2.20;;
16579;SDS011;8402;51.466;6.806;2023-02-18T09:43:47;7.07;;;2.00;;
16579;SDS011;8402;51.466;6.806;2023-02-18T09:46:22;7.93;;;2.50;;
16579;SDS011;8402;51.466;6.806;2023-02-18T09:48:57;9.93;;;2.63;;
16579;SDS011;8402;51.466;6.806;2023-02-18T09:51:30;6.47;;;2.37;;
16579;SDS011;8402;51.466;6.806;2023-02-18T09:54:00;10.33;;;2.40;;
16579;SDS011;8402;51.466;6.806;2023-02-18T09:56:33;6.70;;;1.80;;
16579;SDS011;8402;51.466;6.806;2023-02-18T09:59:08;9.17;;;2.67;;
16579;SDS011;8402;51.466;6.806;2023-02-18T10:01:43;12.97;;;2.57;;
16579;SDS011;8402;51.466;6.806;2023-02-18T10:04:18;10.77;;;2.60;;
16579;SDS011;8402;51.466;6.806;2023-02-18T10:06:50;13.20;;;2.47;;
16579;SDS011;8402;51.466;6.806;2023-02-18T10:09:23;8.13;;;2.40;;
16579;SDS011;8402;51.466;6.806;2023-02-18T10:11:59;7.43;;;1.80;;
16579;SDS011;8402;51.466;6.806;2023-02-18T10:14:36;7.33;;;1.80;;
16579;SDS011;8402;51.466;6.806;2023-02-18T10:17:06;10.70;;;2.30;;
16579;SDS011;8402;51.466;6.806;2023-02-18T10:19:42;10.23;;;2.70;;
16579;SDS011;8402;51.466;6.806;2023-02-18T10:22:15;5.83;;;1.20;;
16579;SDS011;8402;51.466;6.806;2023-02-18T10:24:47;12.03;;;2.33;;
16579;SDS011;8402;51.466;6.806;2023-02-18T10:27:23;10.57;;;2.07;;
16579;SDS011;8402;51.466;6.806;2023-02-18T10:29:55;11.37;;;2.87;;
16579;SDS011;8402;51.466;6.806;2023-02-18T10:32:32;9.77;;;1.90;;
16579;SDS011;8402;51.466;6.806;2023-02-18T10:35:10;8.47;;;2.13;;
16579;SDS011;8402;51.466;6.806;2023-02-18T10:37:48;8.90;;;2.37;;
16579;SDS011;8402;51.466;6.806;2023-02-18T10:40:31;6.63;;;1.87;;
16579;SDS011;8402;51.466;6.806;2023-02-18T10:43:11;10.77;;;2.33;;
16579;SDS011;8402;51.466;6.806;2023-02-18T10:45:51;13.57;;;2.80;;
16579;SDS011;8402;51.466;6.806;2023-02-18T10:48:34;5.73;;;1.73;;
16579;SDS011;8402;51.466;6.806;2023-02-18T10:51:15;7.53;;;2.60;;
16579;SDS011;8402;51.466;6.806;2023-02-18T10:53:48;8.47;;;2.57;;
16579;SDS011;8402;51.466;6.806;2023-02-18T10:59:20;8.23;;;2.47;;
16579;SDS011;8402;51.466;6.806;2023-02-18T11:01:53;4.77;;;2.17;;
16579;SDS011;8402;51.466;6.806;2023-02-18T11:04:27;6.90;;;2.27;;
16579;SDS011;8402;51.466;6.806;2023-02-18T11:07:05;6.87;;;2.37;;
16579;SDS011;8402;51.466;6.806;2023-02-18T11:09:41;9.47;;;2.23;;
16579;SDS011;8402;51.466;6.806;2023-02-18T11:12:17;9.10;;;2.73;;
16579;SDS011;8402;51.466;6.806;2023-02-18T11:15:05;8.23;;;2.60;;
16579;SDS011;8402;51.466;6.806;2023-02-18T11:17:46;7.87;;;2.70;;
16579;SDS011;8402;51.466;6.806;2023-02-18T11:20:22;8.20;;;2.83;;
16579;SDS011;8402;51.466;6.806;2023-02-18T11:22:56;7.47;;;2.40;;
16579;SDS011;8402;51.466;6.806;2023-02-18T11:25:29;6.50;;;2.17;;
16579;SDS011;8402;51.466;6.806;2023-02-18T11:28:02;8.00;;;2.47;;
16579;SDS011;8402;51.466;6.806;2023-02-18T11:30:37;13.10;;;2.90;;
16579;SDS011;8402;51.466;6.806;2023-02-18T11:33:12;6.23;;;1.57;;
16579;SDS011;8402;51.466;6.806;2023-02-18T11:35:47;7.67;;;2.60;;
16579;SDS011;8402;51.466;6.806;2023-02-18T11:38:20;8.90;;;2.53;;
16579;SDS011;8402;51.466;6.806;2023-02-18T11:40:53;10.70;;;2.90;;
16579;SDS011;8402;51.466;6.806;2023-02-18T11:43:25;7.17;;;2.67;;
16579;SDS011;8402;51.466;6.806;2023-02-18T11:46:11;4.70;;;2.40;;
16579;SDS011;8402;51.466;6.806;2023-02-18T11:48:43;5.30;;;2.30;;
16579;SDS011;8402;51.466;6.806;2023-02-18T11:51:14;6.27;;;2.73;;
16579;SDS011;8402;51.466;6.806;2023-02-18T11:53:56;5.03;;;1.73;;
16579;SDS011;8402;51.466;6.806;2023-02-18T11:56:30;5.40;;;2.27;;
16579;SDS011;8402;51.466;6.806;2023-02-18T11:59:02;3.17;;;1.80;;
16579;SDS011;8402;51.466;6.806;2023-02-18T12:01:40;4.80;;;2.40;;
16579;SDS011;8402;51.466;6.806;2023-02-18T12:04:15;8.47;;;2.40;;
16579;SDS011;8402;51.466;6.806;2023-02-18T12:06:48;4.73;;;2.47;;
16579;SDS011;8402;51.466;6.806;2023-02-18T12:09:24;5.90;;;2.00;;
16579;SDS011;8402;51.466;6.806;2023-02-18T12:11:59;5.57;;;2.17;;
16579;SDS011;8402;51.466;6.806;2023-02-18T12:14:31;7.23;;;2.07;;
16579;SDS011;8402;51.466;6.806;2023-02-18T12:17:17;4.77;;;1.77;;
16579;SDS011;8402;51.466;6.806;2023-02-18T12:20:02;3.07;;;2.00;;
16579;SDS011;8402;51.466;6.806;2023-02-18T12:22:50;3.23;;;1.83;;
16579;SDS011;8402;51.466;6.806;2023-02-18T12:25:28;4.60;;;2.33;;
16579;SDS011;8402;51.466;6.806;2023-02-18T12:28:10;3.53;;;2.03;;
16579;SDS011;8402;51.466;6.806;2023-02-18T12:33:51;8.60;;;2.70;;
16579;SDS011;8402;51.466;6.806;2023-02-18T12:36:33;5.30;;;2.43;;
16579;SDS011;8402;51.466;6.806;2023-02-18T12:39:16;4.67;;;2.00;;
16579;SDS011;8402;51.466;6.806;2023-02-18T12:42:13;7.03;;;2.60;;
16579;SDS011;8402;51.466;6.806;2023-02-18T12:44:59;6.13;;;2.50;;
16579;SDS011;8402;51.466;6.806;2023-02-18T12:47:46;8.63;;;2.70;;
16579;SDS011;8402;51.466;6.806;2023-02-18T12:56:51;9.63;;;2.80;;
16579;SDS011;8402;51.466;6.806;2023-02-18T12:59:37;3.63;;;2.80;;
16579;SDS011;8402;51.466;6.806;2023-02-18T13:02:39;5.73;;;2.63;;
16579;SDS011;8402;51.466;6.806;2023-02-18T13:05:31;4.70;;;2.57;;
16579;SDS011;8402;51.466;6.806;2023-02-18T13:08:21;4.60;;;2.70;;
16579;SDS011;8402;51.466;6.806;2023-02-18T13:11:04;5.50;;;2.70;;
16579;SDS011;8402;51.466;6.806;2023-02-18T13:13:44;5.23;;;2.53;;
16579;SDS011;8402;51.466;6.806;2023-02-18T13:16:20;5.57;;;3.00;;
16579;SDS011;8402;51.466;6.806;2023-02-18T13:18:54;5.87;;;2.73;;
16579;SDS011;8402;51.466;6.806;2023-02-18T13:21:30;8.03;;;3.27;;
16579;SDS011;8402;51.466;6.806;2023-02-18T13:24:05;4.53;;;2.67;;
16579;SDS011;8402;51.466;6.806;2023-02-18T13:26:39;6.13;;;3.13;;
16579;SDS011;8402;51.466;6.806;2023-02-18T13:29:16;5.27;;;3.43;;
16579;SDS011;8402;51.466;6.806;2023-02-18T13:31:56;5.70;;;3.10;;
16579;SDS011;8402;51.466;6.806;2023-02-18T13:34:38;6.30;;;3.60;;
16579;SDS011;8402;51.466;6.806;2023-02-18T13:37:15;6.30;;;3.70;;
16579;SDS011;8402;51.466;6.806;2023-02-18T13:39:56;7.57;;;3.93;;
16579;SDS011;8402;51.466;6.806;2023-02-18T13:42:34;7.50;;;4.13;;
16579;SDS011;8402;51.466;6.806;2023-02-18T13:45:21;9.33;;;3.40;;
16579;SDS011;8402;51.466;6.806;2023-02-18T13:47:52;7.77;;;4.53;;
16579;SDS011;8402;51.466;6.806;2023-02-18T13:50:27;12.97;;;4.67;;
16579;SDS011;8402;51.466;6.806;2023-02-18T13:55:56;12.40;;;5.17;;
16579;SDS011;8402;51.466;6.806;2023-02-18T13:58:30;10.23;;;4.90;;
16579;SDS011;8402;51.466;6.806;2023-02-18T14:01:12;13.27;;;5.97;;
16579;SDS011;8402;51.466;6.806;2023-02-18T14:03:54;13.27;;;5.13;;
16579;SDS011;8402;51.466;6.806;2023-02-18T14:06:27;10.10;;;4.40;;
16579;SDS011;8402;51.466;6.806;2023-02-18T14:09:03;8.57;;;3.33;;
16579;SDS011;8402;51.466;6.806;2023-02-18T14:11:52;11.57;;;5.80;;
16579;SDS011;8402;51.466;6.806;2023-02-18T14:14:33;19.03;;;6.50;;
16579;SDS011;8402;51.466;6.806;2023-02-18T14:23:04;16.30;;;7.53;;
16579;SDS011;8402;51.466;6.806;2023-02-18T14:25:40;17.23;;;7.13;;
16579;SDS011;8402;51.466;6.806;2023-02-18T14:31:22;16.00;;;6.77;;
16579;SDS011;8402;51.466;6.806;2023-02-18T14:34:08;13.13;;;5.53;;
16579;SDS011;8402;51.466;6.806;2023-02-18T14:37:09;18.83;;;6.53;;
16579;SDS011;8402;51.466;6.806;2023-02-18T14:39:55;17.20;;;7.50;;
16579;SDS011;8402;51.466;6.806;2023-02-18T14:42:34;17.23;;;7.60;;
16579;SDS011;8402;51.466;6.806;2023-02-18T14:45:21;12.30;;;6.77;;
16579;SDS011;8402;51.466;6.806;2023-02-18T14:50:55;20.30;;;7.37;;
16579;SDS011;8402;51.466;6.806;2023-02-18T14:53:26;15.37;;;7.43;;
16579;SDS011;8402;51.466;6.806;2023-02-18T14:55:58;16.67;;;7.47;;
16579;SDS011;8402;51.466;6.806;2023-02-18T14:58:30;16.57;;;7.10;;
16579;SDS011;8402;51.466;6.806;2023-02-18T15:01:12;17.20;;;6.37;;
16579;SDS011;8402;51.466;6.806;2023-02-18T15:03:46;13.03;;;6.73;;
16579;SDS011;8402;51.466;6.806;2023-02-18T15:06:21;21.33;;;7.97;;
16579;SDS011;8402;51.466;6.806;2023-02-18T15:08:52;16.00;;;7.60;;
16579;SDS011;8402;51.466;6.806;2023-02-18T15:11:23;13.90;;;5.67;;
16579;SDS011;8402;51.466;6.806;2023-02-18T15:13:59;14.20;;;7.90;;
16579;SDS011;8402;51.466;6.806;2023-02-18T15:16:34;17.27;;;7.97;;
16579;SDS011;8402;51.466;6.806;2023-02-18T15:19:05;14.17;;;7.13;;
16579;SDS011;8402;51.466;6.806;2023-02-18T15:21:43;13.47;;;7.57;;
16579;SDS011;8402;51.466;6.806;2023-02-18T15:24:22;13.97;;;5.83;;
16579;SDS011;8402;51.466;6.806;2023-02-18T15:26:55;14.17;;;7.60;;
16579;SDS011;8402;51.466;6.806;2023-02-18T15:29:28;16.80;;;5.87;;
16579;SDS011;8402;51.466;6.806;2023-02-18T15:32:13;19.53;;;8.03;;
16579;SDS011;8402;51.466;6.806;2023-02-18T15:34:48;13.33;;;5.83;;
16579;SDS011;8402;51.466;6.806;2023-02-18T15:37:19;14.40;;;7.70;;
16579;SDS011;8402;51.466;6.806;2023-02-18T15:39:49;16.80;;;7.17;;
16579;SDS011;8402;51.466;6.806;2023-02-18T15:42:23;16.77;;;8.17;;
16579;SDS011;8402;51.466;6.806;2023-02-18T15:44:56;16.10;;;7.83;;
16579;SDS011;8402;51.466;6.806;2023-02-18T15:47:30;19.13;;;7.20;;
16579;SDS011;8402;51.466;6.806;2023-02-18T15:50:01;13.13;;;7.40;;
16579;SDS011;8402;51.466;6.806;2023-02-18T15:52:32;17.57;;;7.57;;
16579;SDS011;8402;51.466;6.806;2023-02-18T15:55:10;14.87;;;7.30;;
16579;SDS011;8402;51.466;6.806;2023-02-18T15:57:47;17.70;;;7.50;;
16579;SDS011;8402;51.466;6.806;2023-02-18T16:00:18;15.87;;;7.73;;
16579;SDS011;8402;51.466;6.806;2023-02-18T16:03:04;17.97;;;8.00;;
16579;SDS011;8402;51.466;6.806;2023-02-18T16:05:40;15.97;;;7.90;;
16579;SDS011;8402;51.466;6.806;2023-02-18T16:08:13;13.63;;;7.73;;